createdAt,value
2022-12-01T00:01:13.211Z,2.29
2022-12-01T00:04:14.777Z,2.11
2022-12-01T00:07:16.295Z,1.92
2022-12-01T00:10:26.759Z,1.76
2022-12-01T00:13:28.363Z,1.49
2022-12-01T00:16:30.277Z,1.14
2022-12-01T00:19:31.958Z,0.81
2022-12-01T00:22:33.555Z,0.48
2022-12-01T00:25:35.088Z,0.22
2022-12-01T00:28:36.677Z,-0.01
2022-12-01T00:31:38.439Z,-0.14
2022-12-01T00:34:40.210Z,-0.34
2022-12-01T00:37:41.898Z,-0.49
2022-12-01T00:40:43.430Z,-0.64
2022-12-01T00:43:44.964Z,-0.74
2022-12-01T00:46:46.504Z,-0.97
2022-12-01T00:49:48.164Z,-1.14
2022-12-01T00:52:49.919Z,-1.29
2022-12-01T00:55:53.910Z,-1.41
2022-12-01T00:58:55.526Z,-1.49
2022-12-01T01:01:57.268Z,-1.53
2022-12-01T01:04:58.815Z,-1.56
2022-12-01T01:08:00.402Z,-1.66
2022-12-01T01:11:02.243Z,-1.29
2022-12-01T01:14:04.114Z,-1.42
2022-12-01T01:17:05.707Z,-1.38
2022-12-01T01:20:07.839Z,-1.42
2022-12-01T01:23:09.388Z,-1.53
2022-12-01T01:26:14.441Z,-1.72
2022-12-01T01:29:15.965Z,-1.80
2022-12-01T01:32:17.523Z,-1.96
2022-12-01T01:35:19.056Z,-2.04
2022-12-01T01:38:20.585Z,-2.05
2022-12-01T01:41:22.997Z,-2.14
2022-12-01T01:44:48.172Z,-2.15
2022-12-01T01:47:52.125Z,-2.29
2022-12-01T01:50:53.659Z,-2.37
2022-12-01T01:53:58.333Z,-2.42
2022-12-01T01:57:00.915Z,-2.46
2022-12-01T02:00:07.965Z,-2.54
2022-12-01T02:03:13.383Z,-2.52
2022-12-01T02:06:15.197Z,-2.61
2022-12-01T02:09:16.715Z,-2.48
2022-12-01T02:12:33.171Z,-2.55
2022-12-01T02:15:55.885Z,-2.08
2022-12-01T02:19:28.817Z,-2.17
2022-12-01T02:22:59.684Z,-2.01
2022-12-01T02:26:06.983Z,-1.88
2022-12-01T02:29:20.791Z,-1.56
2022-12-01T02:32:25.300Z,-1.57
2022-12-01T02:35:35.708Z,-1.65
2022-12-01T02:38:47.159Z,-1.79
2022-12-01T02:41:52.380Z,-1.89
2022-12-01T02:44:54.533Z,-2.05
2022-12-01T02:47:57.551Z,-2.24
2022-12-01T02:51:03.316Z,-2.36
2022-12-01T02:54:05.491Z,-2.45
2022-12-01T02:57:11.534Z,-2.52
2022-12-01T03:00:13.804Z,-2.53
2022-12-01T03:03:43.693Z,-2.61
2022-12-01T03:06:57.056Z,-2.47
2022-12-01T03:10:04.447Z,-2.48
2022-12-01T03:13:27.699Z,-2.58
2022-12-01T03:16:51.432Z,-2.70
2022-12-01T03:20:24.822Z,-2.88
2022-12-01T03:23:29.129Z,-3.05
2022-12-01T03:26:32.379Z,-3.17
2022-12-01T03:29:40.247Z,-3.19
2022-12-01T03:32:47.456Z,-3.19
2022-12-01T03:35:55.765Z,-3.26
2022-12-01T03:39:02.714Z,-3.27
2022-12-01T03:42:11.328Z,-3.26
2022-12-01T03:45:36.700Z,-3.24
2022-12-01T03:48:39.430Z,-3.28
2022-12-01T03:51:56.146Z,-3.24
2022-12-01T03:55:03.313Z,-3.22
2022-12-01T03:58:11.089Z,-3.19
2022-12-01T04:01:12.770Z,-3.18
2022-12-01T04:04:15.221Z,-3.19
2022-12-01T04:07:16.776Z,-3.37
2022-12-01T04:10:18.443Z,-3.04
2022-12-01T04:13:23.313Z,-2.97
2022-12-01T04:16:24.904Z,-2.86
2022-12-01T04:19:26.460Z,-2.81
2022-12-01T04:22:27.983Z,-2.74
2022-12-01T04:25:29.516Z,-2.77
2022-12-01T04:28:31.343Z,-2.82
2022-12-01T04:31:32.995Z,-2.94
2022-12-01T04:34:34.663Z,-3.14
2022-12-01T04:37:36.641Z,-3.36
2022-12-01T04:40:38.917Z,-3.20
2022-12-01T04:43:40.990Z,-3.21
2022-12-01T04:46:42.784Z,-3.01
2022-12-01T04:49:44.342Z,-3.11
2022-12-01T04:52:46.629Z,-3.19
2022-12-01T04:55:48.156Z,-3.27
2022-12-01T04:58:49.881Z,-3.34
2022-12-01T05:01:51.464Z,-3.43
2022-12-01T05:04:53.037Z,-3.43
2022-12-01T05:07:54.721Z,-3.39
2022-12-01T05:10:56.843Z,-3.32
2022-12-01T05:13:59.041Z,-2.86
2022-12-01T05:17:00.657Z,-2.71
2022-12-01T05:20:20.598Z,-2.65
2022-12-01T05:23:22.142Z,-2.77
2022-12-01T05:26:23.681Z,-2.85
2022-12-01T05:29:25.311Z,-2.96
2022-12-01T05:32:26.833Z,-2.93
2022-12-01T05:35:28.363Z,-2.85
2022-12-01T05:38:29.886Z,-2.78
2022-12-01T05:41:31.419Z,-2.78
2022-12-01T05:44:32.968Z,-2.84
2022-12-01T05:47:34.506Z,-2.76
2022-12-01T05:50:38.529Z,-2.82
2022-12-01T05:53:40.149Z,-2.90
2022-12-01T05:56:41.745Z,-3.06
2022-12-01T05:59:43.304Z,-3.14
2022-12-01T06:02:44.897Z,-3.30
2022-12-01T06:05:46.526Z,-3.43
2022-12-01T06:08:48.068Z,-3.63
2022-12-01T06:11:52.491Z,-3.75
2022-12-01T06:14:54.268Z,-3.83
2022-12-01T06:17:59.155Z,-3.88
2022-12-01T06:21:01.209Z,-3.83
2022-12-01T06:24:02.747Z,-3.73
2022-12-01T06:27:04.444Z,-3.70
2022-12-01T06:30:06.787Z,-3.54
2022-12-01T06:33:08.397Z,-3.46
2022-12-01T06:36:10.915Z,-3.43
2022-12-01T06:39:14.664Z,-3.39
2022-12-01T06:42:16.209Z,-3.26
2022-12-01T06:45:17.942Z,-3.23
2022-12-01T06:48:19.517Z,-3.23
2022-12-01T06:51:21.200Z,-3.22
2022-12-01T06:54:22.747Z,-3.22
2022-12-01T06:57:24.546Z,-3.18
2022-12-01T07:00:26.325Z,-3.11
2022-12-01T07:03:27.852Z,-3.01
2022-12-01T07:06:30.734Z,-2.97
2022-12-01T07:09:32.251Z,-2.80
2022-12-01T07:12:33.924Z,-2.61
2022-12-01T07:15:35.475Z,-2.49
2022-12-01T07:18:37.615Z,-2.83
2022-12-01T07:21:39.144Z,-2.32
2022-12-01T07:24:40.739Z,-2.16
2022-12-01T07:27:42.251Z,-1.99
2022-12-01T07:30:43.877Z,-1.84
2022-12-01T07:33:45.820Z,-1.63
2022-12-01T07:36:47.376Z,-1.41
2022-12-01T07:39:49.176Z,-1.21
2022-12-01T07:42:50.966Z,-1.17
2022-12-01T07:45:52.542Z,-0.96
2022-12-01T07:48:55.468Z,-0.86
2022-12-01T07:51:57.018Z,-0.74
2022-12-01T07:54:58.646Z,-0.59
2022-12-01T07:58:00.817Z,-0.54
2022-12-01T08:01:10.327Z,-0.44
2022-12-01T08:04:12.163Z,-0.35
2022-12-01T08:07:13.687Z,-0.25
2022-12-01T08:10:15.295Z,-0.18
2022-12-01T08:13:17.583Z,-0.12
2022-12-01T08:16:22.490Z,-0.04
2022-12-01T08:19:25.849Z,0.08
2022-12-01T08:22:27.389Z,0.17
2022-12-01T08:25:29.858Z,0.24
2022-12-01T08:28:31.674Z,0.32
2022-12-01T08:31:35.649Z,0.40
2022-12-01T08:34:41.424Z,0.49
2022-12-01T08:37:42.957Z,0.61
2022-12-01T08:40:44.509Z,0.73
2022-12-01T08:44:01.841Z,0.87
2022-12-01T08:47:03.563Z,1.13
2022-12-01T08:50:06.327Z,1.46
2022-12-01T08:53:07.872Z,1.59
2022-12-01T08:56:16.215Z,1.95
2022-12-01T08:59:17.744Z,2.04
2022-12-01T09:02:25.026Z,2.18
2022-12-01T09:05:26.661Z,2.27
2022-12-01T09:08:31.258Z,2.53
2022-12-01T09:11:32.913Z,2.67
2022-12-01T09:14:39.969Z,2.77
2022-12-01T09:17:41.523Z,2.87
2022-12-01T09:20:43.042Z,2.91
2022-12-01T09:23:44.886Z,2.97
2022-12-01T09:26:46.470Z,2.84
2022-12-01T09:29:48.332Z,3.05
2022-12-01T09:32:50.071Z,3.17
2022-12-01T09:35:51.749Z,3.18
2022-12-01T09:38:53.357Z,3.24
2022-12-01T09:41:58.558Z,3.29
2022-12-01T09:45:02.700Z,3.31
2022-12-01T09:48:05.185Z,3.34
2022-12-01T09:51:21.803Z,3.37
2022-12-01T09:54:23.367Z,3.52
2022-12-01T09:57:35.299Z,3.72
2022-12-01T10:00:39.705Z,3.79
2022-12-01T10:03:48.417Z,3.86
2022-12-01T10:07:02.320Z,4.01
2022-12-01T10:10:07.784Z,4.09
2022-12-01T10:13:21.488Z,4.25
2022-12-01T10:16:30.780Z,4.34
2022-12-01T10:19:54.799Z,4.43
2022-12-01T10:23:08.050Z,4.57
2022-12-01T10:26:14.733Z,4.66
2022-12-01T10:29:43.828Z,4.85
2022-12-01T10:32:57.623Z,4.84
2022-12-01T10:35:59.191Z,4.87
2022-12-01T10:39:02.360Z,5.09
2022-12-01T10:42:12.237Z,5.19
2022-12-01T10:45:40.865Z,5.30
2022-12-01T10:48:54.479Z,5.41
2022-12-01T10:51:57.613Z,5.59
2022-12-01T10:55:00.178Z,5.72
2022-12-01T10:58:09.243Z,5.80
2022-12-01T11:01:25.987Z,5.99
2022-12-01T11:04:45.862Z,6.10
2022-12-01T11:07:47.964Z,6.43
2022-12-01T11:10:49.894Z,6.51
2022-12-01T11:13:51.770Z,6.55
2022-12-01T11:16:54.109Z,6.58
2022-12-01T11:19:55.935Z,6.61
2022-12-01T11:23:21.004Z,6.50
2022-12-01T11:26:32.517Z,6.60
2022-12-01T11:29:38.343Z,6.52
2022-12-01T11:32:40.108Z,6.51
2022-12-01T11:35:47.568Z,6.56
2022-12-01T11:38:49.411Z,6.57
2022-12-01T11:41:56.012Z,6.55
2022-12-01T11:45:22.050Z,6.56
2022-12-01T11:48:31.220Z,6.61
2022-12-01T11:51:37.624Z,6.60
2022-12-01T11:54:55.471Z,6.59
2022-12-01T11:58:02.191Z,6.65
2022-12-01T12:01:04.686Z,6.71
2022-12-01T12:04:21.462Z,6.71
2022-12-01T12:07:22.965Z,6.75
2022-12-01T12:10:46.896Z,6.73
2022-12-01T12:14:05.253Z,6.81
2022-12-01T12:18:01.263Z,6.81
2022-12-01T12:21:31.036Z,6.74
2022-12-01T12:24:50.354Z,6.72
2022-12-01T12:28:03.419Z,6.74
2022-12-01T12:31:23.381Z,6.68
2022-12-01T12:34:54.220Z,6.70
2022-12-01T12:38:20.543Z,6.65
2022-12-01T12:41:39.322Z,6.50
2022-12-01T12:44:43.862Z,6.46
2022-12-01T12:48:08.175Z,6.42
2022-12-01T12:51:16.290Z,6.30
2022-12-01T12:54:43.022Z,6.36
2022-12-01T12:57:52.543Z,6.42
2022-12-01T13:00:59.279Z,6.33
2022-12-01T13:04:11.358Z,6.31
2022-12-01T13:07:42.614Z,6.28
2022-12-01T13:10:58.146Z,6.18
2022-12-01T13:14:06.843Z,6.10
2022-12-01T13:17:22.562Z,6.08
2022-12-01T13:20:27.804Z,6.01
2022-12-01T13:23:29.652Z,5.95
2022-12-01T13:26:31.765Z,5.92
2022-12-01T13:29:38.413Z,5.85
2022-12-01T13:32:44.079Z,5.87
2022-12-01T13:36:08.588Z,6.12
2022-12-01T13:39:22.495Z,6.12
2022-12-01T13:42:27.315Z,6.16
2022-12-01T13:45:32.900Z,6.15
2022-12-01T13:48:37.507Z,6.17
2022-12-01T13:52:16.449Z,6.09
2022-12-01T13:55:55.573Z,5.97
2022-12-01T13:58:57.114Z,5.76
2022-12-01T14:02:21.484Z,5.58
2022-12-01T14:05:23.014Z,5.40
2022-12-01T14:08:24.647Z,5.20
2022-12-01T14:11:27.850Z,5.03
2022-12-01T14:14:35.898Z,4.90
2022-12-01T14:17:38.227Z,4.81
2022-12-01T14:20:45.662Z,4.81
2022-12-01T14:24:05.336Z,4.74
2022-12-01T14:27:08.006Z,4.55
2022-12-01T14:30:46.602Z,4.44
2022-12-01T14:33:59.350Z,4.38
2022-12-01T14:37:08.889Z,4.41
2022-12-01T14:40:18.126Z,4.27
2022-12-01T14:43:38.599Z,4.27
2022-12-01T14:46:45.577Z,4.19
2022-12-01T14:50:12.545Z,4.21
2022-12-01T14:53:35.762Z,4.06
2022-12-01T14:56:37.689Z,3.94
2022-12-01T14:59:39.266Z,3.81
2022-12-01T15:02:47.857Z,3.69
2022-12-01T15:05:49.619Z,3.56
2022-12-01T15:09:34.022Z,3.44
2022-12-01T15:12:36.613Z,3.25
2022-12-01T15:15:50.936Z,3.05
2022-12-01T15:18:52.835Z,3.00
2022-12-01T15:21:54.436Z,2.95
2022-12-01T15:25:14.534Z,2.94
2022-12-01T15:28:30.407Z,2.92
2022-12-01T15:31:32.353Z,2.72
2022-12-01T15:34:42.631Z,2.92
2022-12-01T15:37:45.029Z,2.78
2022-12-01T15:41:21.124Z,2.71
2022-12-01T15:44:19.932Z,2.68
2022-12-01T15:47:36.909Z,2.58
2022-12-01T15:50:46.298Z,2.58
2022-12-01T15:53:54.090Z,2.62
2022-12-01T15:56:58.554Z,2.52
2022-12-01T16:00:00.151Z,2.43
2022-12-01T16:03:02.313Z,2.35
2022-12-01T16:06:03.925Z,2.35
2022-12-01T16:09:07.846Z,2.33
2022-12-01T16:12:09.320Z,2.24
2022-12-01T16:15:18.413Z,2.23
2022-12-01T16:18:38.178Z,2.20
2022-12-01T16:21:59.697Z,2.20
2022-12-01T16:25:01.231Z,2.17
2022-12-01T16:28:04.356Z,2.07
2022-12-01T16:31:10.169Z,2.02
2022-12-01T16:34:44.620Z,2.01
2022-12-01T16:37:41.523Z,2.01
2022-12-01T16:40:43.576Z,2.01
2022-12-01T16:44:05.456Z,1.98
2022-12-01T16:47:16.303Z,1.86
2022-12-01T16:50:20.459Z,1.77
2022-12-01T16:53:22.235Z,1.73
2022-12-01T16:56:23.714Z,1.75
2022-12-01T16:59:25.335Z,1.74
2022-12-01T17:02:26.963Z,1.65
2022-12-01T17:05:28.625Z,1.61
2022-12-01T17:08:30.447Z,1.61
2022-12-01T17:11:32.515Z,1.40
2022-12-01T17:14:34.121Z,1.53
2022-12-01T17:17:36.097Z,1.47
2022-12-01T17:20:37.715Z,1.45
2022-12-01T17:23:39.881Z,1.45
2022-12-01T17:26:41.421Z,1.47
2022-12-01T17:29:46.056Z,1.43
2022-12-01T17:32:47.990Z,1.41
2022-12-01T17:35:49.891Z,1.36
2022-12-01T17:38:51.488Z,1.35
2022-12-01T17:41:56.082Z,1.34
2022-12-01T17:44:57.595Z,1.27
2022-12-01T17:47:59.133Z,1.19
2022-12-01T17:51:00.652Z,1.05
2022-12-01T17:54:02.181Z,0.94
2022-12-01T17:57:03.760Z,0.75
2022-12-01T18:00:06.026Z,0.70
2022-12-01T18:03:08.039Z,0.52
2022-12-01T18:06:09.862Z,0.42
2022-12-01T18:09:11.485Z,0.38
2022-12-01T18:12:13.026Z,0.26
2022-12-01T18:15:14.615Z,0.22
2022-12-01T18:18:16.186Z,0.15
2022-12-01T18:21:20.268Z,0.10
2022-12-01T18:24:21.952Z,0.06
2022-12-01T18:27:23.517Z,0.02
2022-12-01T18:30:25.053Z,-0.05
2022-12-01T18:33:26.593Z,-0.06
2022-12-01T18:36:28.839Z,-0.12
2022-12-01T18:39:30.454Z,-0.11
2022-12-01T18:42:31.982Z,-0.08
2022-12-01T18:45:33.528Z,-0.15
2022-12-01T18:48:35.299Z,-0.06
2022-12-01T18:51:37.888Z,-0.12
2022-12-01T18:54:39.416Z,-0.01
2022-12-01T18:57:40.942Z,0.04
2022-12-01T19:00:42.516Z,0.10
2022-12-01T19:03:44.073Z,0.13
2022-12-01T19:06:46.654Z,0.21
2022-12-01T19:09:48.632Z,0.20
2022-12-01T19:12:50.512Z,0.19
2022-12-01T19:15:52.112Z,0.11
2022-12-01T19:18:53.902Z,0.04
2022-12-01T19:21:55.694Z,0.00
2022-12-01T19:24:57.506Z,-0.06
2022-12-01T19:27:59.247Z,-0.10
2022-12-01T19:31:05.840Z,-0.13
2022-12-01T19:34:07.527Z,-0.04
2022-12-01T19:37:09.049Z,-0.02
2022-12-01T19:40:11.090Z,-0.06
2022-12-01T19:43:12.638Z,-0.05
2022-12-01T19:46:16.421Z,-0.15
2022-12-01T19:49:18.010Z,-0.18
2022-12-01T19:52:19.540Z,-0.26
2022-12-01T19:55:21.307Z,-0.30
2022-12-01T19:58:24.879Z,-0.31
2022-12-01T20:01:27.178Z,-0.30
2022-12-01T20:04:28.769Z,-0.31
2022-12-01T20:07:30.662Z,-0.29
2022-12-01T20:10:32.260Z,-0.19
2022-12-01T20:13:35.463Z,-0.04
2022-12-01T20:16:37.083Z,-0.07
2022-12-01T20:19:38.765Z,-0.17
2022-12-01T20:22:40.299Z,-0.31
2022-12-01T20:25:41.841Z,-0.38
2022-12-01T20:28:45.580Z,-0.48
2022-12-01T20:31:47.983Z,-0.60
2022-12-01T20:34:49.832Z,-0.55
2022-12-01T20:37:51.549Z,-0.52
2022-12-01T20:40:53.121Z,-0.46
2022-12-01T20:43:54.678Z,-0.38
2022-12-01T20:46:56.920Z,-0.27
2022-12-01T20:49:58.638Z,-0.29
2022-12-01T20:53:00.214Z,-0.27
2022-12-01T20:56:04.706Z,-0.40
2022-12-01T20:59:06.456Z,-0.59
2022-12-01T21:02:09.930Z,-0.80
2022-12-01T21:05:11.888Z,-0.84
2022-12-01T21:08:13.854Z,-1.09
2022-12-01T21:11:44.380Z,-1.30
2022-12-01T21:14:59.653Z,-1.34
2022-12-01T21:18:05.612Z,-1.32
2022-12-01T21:21:23.155Z,-1.30
2022-12-01T21:24:31.955Z,-1.29
2022-12-01T21:27:35.828Z,-1.25
2022-12-01T21:30:37.643Z,-1.20
2022-12-01T21:33:39.667Z,-1.10
2022-12-01T21:36:41.210Z,-1.09
2022-12-01T21:39:42.877Z,-1.15
2022-12-01T21:42:44.519Z,-1.29
2022-12-01T21:45:46.400Z,-1.30
2022-12-01T21:48:48.081Z,-1.21
2022-12-01T21:51:51.917Z,-1.30
2022-12-01T21:54:53.668Z,-1.31
2022-12-01T21:57:55.341Z,-1.32
2022-12-01T22:00:58.104Z,-1.33
2022-12-01T22:04:02.665Z,-1.22
2022-12-01T22:07:05.275Z,-1.01
2022-12-01T22:10:44.452Z,-0.86
2022-12-01T22:14:06.301Z,-0.75
2022-12-01T22:17:07.746Z,-0.70
2022-12-01T22:20:21.378Z,-0.61
2022-12-01T22:23:33.786Z,-0.54
2022-12-01T22:26:41.096Z,-0.37
2022-12-01T22:29:45.232Z,-0.25
2022-12-01T22:32:59.282Z,-0.10
2022-12-01T22:36:00.990Z,-0.02
2022-12-01T22:39:26.645Z,0.05
2022-12-01T22:42:34.709Z,0.09
2022-12-01T22:45:36.367Z,0.17
2022-12-01T22:48:40.870Z,0.22
2022-12-01T22:51:48.148Z,0.27
2022-12-01T22:54:50.272Z,0.29
2022-12-01T22:57:52.458Z,0.34
2022-12-01T23:00:55.565Z,0.40
2022-12-01T23:04:22.897Z,0.43
2022-12-01T23:07:37.149Z,0.57
2022-12-01T23:10:39.936Z,0.68
2022-12-01T23:13:41.499Z,0.77
2022-12-01T23:16:43.042Z,0.75
2022-12-01T23:19:44.715Z,0.70
2022-12-01T23:22:47.281Z,0.47
2022-12-01T23:25:50.077Z,0.70
2022-12-01T23:28:51.595Z,0.76
2022-12-01T23:31:53.214Z,0.77
2022-12-01T23:34:59.962Z,0.83
2022-12-01T23:38:02.037Z,0.86
2022-12-01T23:41:07.043Z,0.67
2022-12-01T23:44:28.247Z,0.93
2022-12-01T23:47:30.304Z,0.80
2022-12-01T23:50:31.853Z,0.99
2022-12-01T23:53:33.700Z,1.00
2022-12-01T23:56:38.130Z,0.87
2022-12-01T23:59:39.674Z,1.00
